Time;durP1;ratioP1;P1;durP2;ratioP2;P2;SDS_P1;SDS_P2;PMS_P1;PMS_P2;Temp;Humidity;BMP_temperature;BMP_pressure;BME280_temperature;BME280_humidity;BME280_pressure;Samples;Min_cycle;Max_cycle;Signal;HPM_P1;HPM_P2
2021/03/20 00:01:45;;;;;;;6.10;3.90;;;;;;;-2.67;69.62;100562.48;124507;1105;104377;-79
2021/03/20 00:04:15;;;;;;;7.40;3.70;;;;;;;-2.65;69.42;100561.70;124492;1106;104104;-78
2021/03/20 00:06:47;;;;;;;8.70;3.90;;;;;;;-2.60;69.20;100562.67;124514;1105;104345;-78
2021/03/20 00:09:17;;;;;;;8.63;3.90;;;;;;;-2.57;69.33;100565.30;124551;1105;101652;-78
2021/03/20 00:11:47;;;;;;;9.93;4.30;;;;;;;-2.54;69.45;100564.51;124519;1105;104168;-78
2021/03/20 00:14:20;;;;;;;9.20;4.07;;;;;;;-2.52;69.46;100553.50;124516;1105;104104;-78
2021/03/20 00:16:48;;;;;;;8.33;3.80;;;;;;;-2.52;68.78;100555.19;124539;1108;104079;-80
2021/03/20 00:19:16;;;;;;;9.33;3.77;;;;;;;-2.50;68.83;100556.98;124487;1105;104114;-78
2021/03/20 00:21:44;;;;;;;6.70;3.63;;;;;;;-2.48;69.08;100560.44;124577;1106;104232;-78
2021/03/20 00:24:11;;;;;;;7.87;3.70;;;;;;;-2.48;69.30;100560.44;124548;1105;104229;-78
2021/03/20 00:26:39;;;;;;;6.93;3.60;;;;;;;-2.47;68.96;100558.75;124460;1106;104277;-79
2021/03/20 00:29:07;;;;;;;8.93;3.97;;;;;;;-2.44;69.21;100558.83;124523;1109;104146;-78
2021/03/20 00:31:35;;;;;;;8.13;4.13;;;;;;;-2.43;68.79;100560.55;124573;1106;104193;-79
2021/03/20 00:34:02;;;;;;;6.47;3.83;;;;;;;-2.44;69.12;100562.23;124538;1106;104210;-79
2021/03/20 00:36:30;;;;;;;7.67;3.70;;;;;;;-2.47;68.22;100561.30;124532;1105;104243;-79
2021/03/20 00:39:05;;;;;;;8.10;3.53;;;;;;;-2.57;68.68;100562.75;124530;1105;104300;-80
2021/03/20 00:41:34;;;;;;;7.47;3.60;;;;;;;-2.58;68.68;100568.67;124577;1105;104111;-79
2021/03/20 00:44:01;;;;;;;6.67;3.10;;;;;;;-2.61;68.55;100558.39;124549;1106;104128;-79
2021/03/20 00:46:28;;;;;;;6.67;3.47;;;;;;;-2.66;67.63;100564.22;124484;1109;104214;-79
2021/03/20 00:48:55;;;;;;;8.00;3.20;;;;;;;-2.72;68.65;100566.59;124569;1105;104165;-79
2021/03/20 00:51:22;;;;;;;7.30;3.33;;;;;;;-2.79;68.78;100563.02;124456;1109;104305;-79
2021/03/20 00:53:49;;;;;;;6.92;3.17;;;;;;;-2.85;68.03;100565.41;124525;1109;104364;-79
2021/03/20 00:56:16;;;;;;;6.30;3.27;;;;;;;-2.88;68.76;100567.86;124737;1105;104133;-78
2021/03/20 00:58:43;;;;;;;8.47;3.53;;;;;;;-2.90;68.19;100574.61;124639;1109;104798;-78
2021/03/20 01:01:17;;;;;;;5.03;3.00;;;;;;;-2.92;68.54;100571.16;124476;1109;104252;-79
2021/03/20 01:03:45;;;;;;;7.70;3.10;;;;;;;-2.97;68.66;100567.62;124737;1105;104105;-79
2021/03/20 01:06:23;;;;;;;7.70;3.30;;;;;;;-3.03;68.26;100575.13;124578;1105;104262;-79
2021/03/20 01:08:55;;;;;;;5.03;3.17;;;;;;;-3.06;69.02;100570.77;124599;1109;104220;-78
2021/03/20 01:11:25;;;;;;;5.57;2.97;;;;;;;-3.08;69.06;100588.59;124536;1106;104210;-79
2021/03/20 01:13:53;;;;;;;8.10;3.77;;;;;;;-3.06;69.23;100581.84;124457;1109;104274;-79
2021/03/20 01:16:21;;;;;;;5.77;3.07;;;;;;;-3.06;69.05;100579.29;124581;1105;104165;-79
2021/03/20 01:18:50;;;;;;;6.00;3.57;;;;;;;-3.05;69.54;100580.19;124555;1109;104171;-78
2021/03/20 01:21:17;;;;;;;8.67;3.83;;;;;;;-3.06;69.49;100574.19;124638;1106;104621;-79
2021/03/20 01:23:44;;;;;;;9.20;4.00;;;;;;;-3.07;69.52;100574.15;124513;1106;104356;-79
2021/03/20 01:26:11;;;;;;;9.00;4.30;;;;;;;-3.07;69.81;100571.59;124481;1105;104299;-79
2021/03/20 01:28:40;;;;;;;9.60;4.03;;;;;;;-3.07;69.58;100579.25;124511;1105;104133;-79
2021/03/20 01:31:15;;;;;;;8.83;4.27;;;;;;;-3.10;69.23;100576.62;124500;1105;104249;-78
2021/03/20 01:33:42;;;;;;;10.23;4.50;;;;;;;-3.12;70.45;100574.03;124544;1106;104197;-78
2021/03/20 01:36:10;;;;;;;10.07;4.70;;;;;;;-3.10;70.48;100587.69;124525;1109;104235;-79
2021/03/20 01:38:37;;;;;;;12.30;4.67;;;;;;;-3.07;70.69;100575.02;124519;1109;104248;-79
2021/03/20 01:41:08;;;;;;;11.45;5.17;;;;;;;-3.05;70.49;100578.50;124542;1105;104319;-78
2021/03/20 01:43:36;;;;;;;7.23;4.40;;;;;;;-3.03;70.70;100575.98;124684;1105;104163;-78
2021/03/20 01:46:41;;;;;;;8.05;4.20;;;;;;;-3.01;70.58;100581.12;124518;1105;104201;-78
2021/03/20 01:49:17;;;;;;;17.07;5.30;;;;;;;-3.01;70.30;100588.78;124582;1105;104249;-79
2021/03/20 01:52:03;;;;;;;12.10;4.30;;;;;;;-3.02;70.32;100582.82;124483;1106;104092;-78
2021/03/20 01:55:01;;;;;;;10.73;5.30;;;;;;;-3.01;70.04;100588.78;124582;1105;104159;-79
2021/03/20 01:57:35;;;;;;;9.63;4.70;;;;;;;-2.99;70.64;100587.14;124520;1105;104335;-79
2021/03/20 02:00:29;;;;;;;10.27;4.77;;;;;;;-2.99;69.96;100584.59;124536;1109;104619;-78
2021/03/20 02:02:57;;;;;;;11.73;5.03;;;;;;;-2.96;70.47;100587.22;124545;1105;103049;-79
2021/03/20 02:05:29;;;;;;;7.93;4.50;;;;;;;-2.94;70.48;100593.22;124461;1106;104143;-78
2021/03/20 02:07:57;;;;;;;8.77;4.80;;;;;;;-2.95;70.05;100588.94;124564;1108;104670;-79
2021/03/20 02:10:27;;;;;;;8.90;4.50;;;;;;;-2.96;70.33;100584.66;124670;1105;104176;-79
2021/03/20 02:12:58;;;;;;;11.67;4.43;;;;;;;-2.96;70.36;100590.63;124499;1106;104159;-78
2021/03/20 02:15:36;;;;;;;10.47;5.03;;;;;;;-2.96;70.31;100594.88;124556;1105;104134;-79
2021/03/20 02:18:15;;;;;;;7.60;4.43;;;;;;;-2.95;70.13;100601.70;124597;1105;104278;-79
2021/03/20 02:21:08;;;;;;;8.93;4.20;;;;;;;-2.97;69.80;100596.56;124526;1105;104030;-78
2021/03/20 02:24:08;;;;;;;8.93;4.97;;;;;;;-2.96;69.87;100611.05;124561;1106;104219;-79
2021/03/20 02:27:13;;;;;;;9.13;4.87;;;;;;;-2.97;70.09;100608.45;124503;1106;104201;-79
2021/03/20 02:30:03;;;;;;;13.10;5.33;;;;;;;-2.97;69.95;100608.45;124496;1105;104207;-79
2021/03/20 02:32:32;;;;;;;12.10;5.07;;;;;;;-3.01;69.62;100611.75;124462;1106;104242;-78
2021/03/20 02:35:20;;;;;;;9.27;4.77;;;;;;;-3.02;69.27;100610.02;124621;1105;104105;-79
2021/03/20 02:38:11;;;;;;;8.60;4.50;;;;;;;-3.01;69.21;100611.75;124545;1105;104242;-79
2021/03/20 02:41:12;;;;;;;9.07;4.50;;;;;;;-2.98;69.66;100614.38;124553;1106;104286;-78
2021/03/20 02:44:04;;;;;;;7.83;4.03;;;;;;;-2.97;69.35;100614.42;124511;1105;104197;-78
2021/03/20 02:46:42;;;;;;;9.60;4.13;;;;;;;-2.95;69.08;100617.02;124577;1105;104005;-79
2021/03/20 02:49:15;;;;;;;8.27;5.00;;;;;;;-2.94;68.93;100616.19;124598;1105;104118;-79
2021/03/20 02:52:10;;;;;;;8.63;4.27;;;;;;;-2.96;68.60;100621.26;124759;1105;104206;-79
2021/03/20 02:54:47;;;;;;;6.63;4.23;;;;;;;-3.00;68.21;100623.69;124597;1105;104262;-79
2021/03/20 02:57:31;;;;;;;11.37;4.60;;;;;;;-3.02;68.79;100622.78;124577;1105;104166;-79
2021/03/20 03:00:04;;;;;;;9.70;4.57;;;;;;;-3.05;68.31;100621.88;124732;1105;104252;-78
2021/03/20 03:02:34;;;;;;;8.23;4.73;;;;;;;-3.09;68.61;100637.89;124591;1105;104105;-79
2021/03/20 03:05:07;;;;;;;10.37;4.40;;;;;;;-3.11;68.54;100642.09;124572;1108;104143;-78
2021/03/20 03:07:47;;;;;;;9.00;4.53;;;;;;;-3.10;67.99;100636.16;124577;1105;104192;-78
2021/03/20 03:10:37;;;;;;;10.77;5.07;;;;;;;-3.13;68.24;100638.63;124561;1105;104316;-78
2021/03/20 03:13:20;;;;;;;8.20;4.57;;;;;;;-3.15;68.48;100650.48;124478;1109;104162;-79
2021/03/20 03:15:53;;;;;;;10.27;4.30;;;;;;;-3.16;67.68;100652.99;124569;1109;103083;-79
2021/03/20 03:18:27;;;;;;;18.70;10.00;;;;;;;-3.15;68.49;100650.48;124556;1105;104245;-78
2021/03/20 03:20:58;;;;;;;9.70;4.70;;;;;;;-3.13;67.72;100653.94;124603;1105;104149;-79
2021/03/20 03:23:29;;;;;;;10.53;4.87;;;;;;;-3.14;68.21;100654.77;124683;1105;104266;-78
2021/03/20 03:26:06;;;;;;;11.57;4.83;;;;;;;-3.16;67.92;100648.75;124526;1106;104101;-79
2021/03/20 03:28:34;;;;;;;13.13;4.93;;;;;;;-3.17;67.97;100664.88;124608;1106;104146;-79
2021/03/20 03:31:12;;;;;;;11.00;5.03;;;;;;;-3.18;67.87;100665.70;124612;1106;105784;-78
2021/03/20 03:33:46;;;;;;;9.43;4.77;;;;;;;-3.17;67.93;100666.56;124545;1105;104165;-78
2021/03/20 03:36:17;;;;;;;8.67;4.43;;;;;;;-3.15;67.78;100672.58;124509;1105;104189;-79
2021/03/20 03:38:55;;;;;;;9.57;4.80;;;;;;;-3.13;67.58;100674.35;124533;1105;104169;-79
2021/03/20 03:41:26;;;;;;;10.10;4.80;;;;;;;-3.12;68.10;100682.88;124542;1105;104130;-79
2021/03/20 03:43:54;;;;;;;9.17;4.57;;;;;;;-3.10;68.11;100684.64;124561;1105;104136;-79
2021/03/20 03:46:24;;;;;;;11.47;4.80;;;;;;;-3.14;67.40;100687.06;124578;1106;104182;-81
2021/03/20 03:48:53;;;;;;;8.10;4.37;;;;;;;-3.15;67.37;100686.20;124502;1106;104239;-78
2021/03/20 03:51:24;;;;;;;9.10;4.60;;;;;;;-3.15;67.49;100687.89;124503;1106;104261;-79
2021/03/20 03:53:52;;;;;;;9.63;4.20;;;;;;;-3.18;67.51;100691.22;124484;1109;104289;-78
2021/03/20 03:56:57;;;;;;;12.77;4.60;;;;;;;-3.18;67.58;100691.22;124588;1105;104137;-79
2021/03/20 03:59:46;;;;;;;7.67;3.93;;;;;;;-3.16;67.65;100702.33;124527;1106;101626;-79
2021/03/20 04:02:46;;;;;;;9.53;4.70;;;;;;;-3.16;66.97;100699.78;124687;1105;104239;-79
2021/03/20 04:05:37;;;;;;;9.87;4.50;;;;;;;-3.18;67.24;100696.31;124529;1109;104255;-79
2021/03/20 04:08:04;;;;;;;10.63;4.77;;;;;;;-3.21;66.89;100696.23;124547;1109;105464;-79
2021/03/20 04:10:46;;;;;;;10.32;4.97;;;;;;;-3.23;67.84;100700.42;124519;1105;104233;-79
2021/03/20 04:13:25;;;;;;;11.60;5.13;;;;;;;-3.20;67.87;100697.09;124691;1105;104531;-79
2021/03/20 04:16:08;;;;;;;12.73;4.90;;;;;;;-3.24;67.62;100696.11;124596;1105;103726;-79
2021/03/20 04:19:03;;;;;;;9.60;4.80;;;;;;;-3.26;67.07;100700.30;124446;1105;104201;-78
2021/03/20 04:21:30;;;;;;;11.87;4.47;;;;;;;-3.29;67.41;100691.70;124605;1105;104088;-78
2021/03/20 04:24:14;;;;;;;10.25;4.65;;;;;;;-3.33;66.76;100700.94;124742;1105;104226;-78
2021/03/20 04:27:02;;;;;;;10.97;4.77;;;;;;;-3.36;67.57;100705.95;124566;1106;104153;-79
2021/03/20 04:29:32;;;;;;;10.97;4.70;;;;;;;-3.36;67.52;100703.41;124507;1109;102772;-78
2021/03/20 04:32:08;;;;;;;9.83;4.67;;;;;;;-3.40;67.64;100710.10;124514;1105;104644;-78
2021/03/20 04:34:48;;;;;;;10.87;4.73;;;;;;;-3.47;66.91;100700.51;124567;1106;104224;-79
2021/03/20 04:37:19;;;;;;;8.77;4.43;;;;;;;-3.50;67.48;100710.61;124509;1105;104188;-78
2021/03/20 04:39:51;;;;;;;8.27;4.33;;;;;;;-3.51;67.73;100720.77;124515;1105;104117;-78
2021/03/20 04:42:29;;;;;;;9.23;5.10;;;;;;;-3.54;67.53;100718.13;124563;1105;103929;-78
2021/03/20 04:45:00;;;;;;;10.33;4.80;;;;;;;-3.56;66.86;100719.77;124499;1106;103992;-79
2021/03/20 04:47:30;;;;;;;8.57;4.80;;;;;;;-3.56;67.38;100722.31;124516;1109;103969;-79
2021/03/20 04:50:08;;;;;;;10.53;4.80;;;;;;;-3.56;67.23;100725.73;124683;1106;104166;-80
2021/03/20 04:52:42;;;;;;;9.57;4.87;;;;;;;-3.57;67.00;100723.13;124846;1105;104099;-79
2021/03/20 04:55:11;;;;;;;8.93;4.50;;;;;;;-3.56;67.35;100724.86;124487;1105;104121;-79
2021/03/20 04:57:46;;;;;;;9.37;4.70;;;;;;;-3.57;67.19;100725.68;124497;1105;104203;-79
2021/03/20 05:00:32;;;;;;;8.10;4.50;;;;;;;-3.57;67.40;100729.09;124521;1106;104204;-79
2021/03/20 05:03:26;;;;;;;7.72;4.50;;;;;;;-3.54;67.57;100736.84;124495;1106;104341;-78
2021/03/20 05:06:01;;;;;;;11.77;4.90;;;;;;;-3.56;66.74;100735.92;124498;1106;101710;-79
2021/03/20 05:08:43;;;;;;;12.07;5.00;;;;;;;-3.56;67.24;100737.61;124480;1106;104243;-78
2021/03/20 05:11:13;;;;;;;8.73;4.10;;;;;;;-3.59;66.73;100743.48;124502;1106;103045;-79
2021/03/20 05:13:59;;;;;;;8.93;4.50;;;;;;;-3.56;67.38;100741.02;124518;1109;104115;-79
2021/03/20 05:16:47;;;;;;;12.70;4.78;;;;;;;-3.57;66.50;100746.08;124557;1105;104104;-79
2021/03/20 05:19:17;;;;;;;11.17;4.40;;;;;;;-3.57;67.24;100746.94;124532;1105;104204;-79
2021/03/20 05:21:50;;;;;;;10.83;4.33;;;;;;;-3.54;66.65;100753.82;124509;1106;104213;-79
2021/03/20 05:24:25;;;;;;;9.87;5.23;;;;;;;-3.48;66.69;100754.88;124532;1109;103913;-79
2021/03/20 05:26:54;;;;;;;8.27;4.63;;;;;;;-3.46;66.37;100754.92;124545;1106;104165;-79
2021/03/20 05:29:22;;;;;;;8.30;4.70;;;;;;;-3.44;66.77;100753.28;124620;1105;102969;-79
2021/03/20 05:31:50;;;;;;;9.00;4.40;;;;;;;-3.39;66.73;100751.77;124834;1105;104111;-79
2021/03/20 05:34:23;;;;;;;7.70;4.70;;;;;;;-3.33;66.25;100757.05;124495;1106;103305;-78
2021/03/20 05:36:51;;;;;;;11.03;4.73;;;;;;;-3.26;66.35;100758.11;124539;1105;104107;-79
2021/03/20 05:39:19;;;;;;;8.23;4.50;;;;;;;-3.19;66.35;100765.16;124585;1105;104130;-78
2021/03/20 05:41:52;;;;;;;11.50;4.80;;;;;;;-3.15;65.43;100762.73;124718;1105;104197;-79
2021/03/20 05:44:54;;;;;;;10.13;5.13;;;;;;;-3.10;65.96;100773.94;124539;1109;104085;-79
2021/03/20 05:47:33;;;;;;;10.43;5.30;;;;;;;-3.01;64.97;100769.96;124547;1106;104111;-79
2021/03/20 05:50:43;;;;;;;13.70;5.07;;;;;;;-2.96;64.93;100776.06;124764;1105;104169;-79
2021/03/20 05:53:41;;;;;;;9.83;5.27;;;;;;;-2.90;64.82;100768.59;124504;1106;104140;-80
2021/03/20 05:56:45;;;;;;;8.23;4.43;;;;;;;-2.85;65.20;100778.14;124542;1105;104280;-78
2021/03/20 05:59:37;;;;;;;7.00;4.33;;;;;;;-2.70;64.68;100779.39;124741;1105;104204;-79
2021/03/20 06:02:19;;;;;;;12.67;4.60;;;;;;;-2.62;63.77;100780.50;124555;1106;104133;-79
2021/03/20 06:04:54;;;;;;;11.00;4.87;;;;;;;-2.56;63.78;100775.56;124523;1105;104204;-79
2021/03/20 06:08:00;;;;;;;11.40;4.33;;;;;;;-2.56;62.79;100780.67;124577;1107;104900;-79
2021/03/20 06:10:51;;;;;;;8.43;4.53;;;;;;;-2.53;63.90;100789.28;124523;1105;104137;-79
2021/03/20 06:13:44;;;;;;;8.13;4.63;;;;;;;-2.46;63.23;100783.55;124492;1105;104538;-79
2021/03/20 06:16:32;;;;;;;6.83;4.03;;;;;;;-2.40;63.34;100780.30;124768;1105;104216;-79
2021/03/20 06:19:37;;;;;;;9.23;4.70;;;;;;;-2.35;63.21;100785.52;124508;1106;104248;-78
2021/03/20 06:22:31;;;;;;;8.97;4.67;;;;;;;-2.30;63.24;100781.44;124544;1105;104271;-79
2021/03/20 06:25:09;;;;;;;9.37;4.83;;;;;;;-2.22;62.73;100782.50;124231;1109;104275;-79
2021/03/20 06:27:44;;;;;;;9.10;4.70;;;;;;;-2.17;63.26;100796.27;124484;1109;104254;-79
2021/03/20 06:30:30;;;;;;;12.27;5.17;;;;;;;-2.12;62.53;100794.72;124219;1112;104287;-79
2021/03/20 06:33:15;;;;;;;9.90;4.50;;;;;;;-2.08;62.19;100796.53;124400;1109;104303;-79
2021/03/20 06:35:48;;;;;;;7.90;4.70;;;;;;;-2.04;62.62;100797.47;124288;1109;104028;-79
2021/03/20 06:38:28;;;;;;;9.83;4.73;;;;;;;-1.93;62.68;100798.65;124260;1109;104179;-79
2021/03/20 06:41:13;;;;;;;9.90;5.10;;;;;;;-1.82;62.35;100799.78;124282;1108;104299;-79
2021/03/20 06:43:59;;;;;;;10.00;5.07;;;;;;;-1.69;61.78;100801.84;124243;1108;104322;-79
2021/03/20 06:46:30;;;;;;;11.67;5.83;;;;;;;-1.58;62.14;100802.13;124217;1112;104159;-78
2021/03/20 06:48:58;;;;;;;13.03;5.43;;;;;;;-1.42;61.59;100796.58;124240;1109;104390;-79
2021/03/20 06:51:28;;;;;;;12.10;5.07;;;;;;;-1.24;61.58;100802.16;124201;1112;104117;-79
2021/03/20 06:54:01;;;;;;;14.33;6.30;;;;;;;-1.04;60.90;100809.44;124220;1109;104675;-78
2021/03/20 06:56:34;;;;;;;11.95;5.80;;;;;;;-0.85;60.42;100809.03;124210;1109;104666;-78
2021/03/20 06:59:01;;;;;;;10.93;5.07;;;;;;;-0.69;60.07;100810.25;124257;1109;104306;-78
2021/03/20 07:01:38;;;;;;;11.23;5.00;;;;;;;-0.52;59.98;100815.75;124300;1109;104206;-78
2021/03/20 07:04:27;;;;;;;11.50;5.33;;;;;;;-0.37;58.98;100816.05;124733;1105;104200;-78
2021/03/20 07:07:35;;;;;;;10.43;5.10;;;;;;;-0.24;59.25;100812.91;124556;1106;104108;-79
2021/03/20 07:10:24;;;;;;;13.40;6.37;;;;;;;0.03;59.01;100819.45;124677;1106;104146;-77
2021/03/20 07:13:25;;;;;;;9.45;4.55;;;;;;;0.21;58.64;100818.09;124650;1105;104300;-78
2021/03/20 07:16:16;;;;;;;7.33;4.53;;;;;;;0.39;58.23;100802.18;124565;1105;104207;-78
2021/03/20 07:19:10;;;;;;;8.47;4.83;;;;;;;0.62;57.77;100811.98;124645;1105;104188;-77
2021/03/20 07:21:40;;;;;;;7.37;4.40;;;;;;;1.03;57.44;100818.64;124631;1106;104207;-78
2021/03/20 07:24:10;;;;;;;11.10;5.13;;;;;;;1.39;57.43;100822.60;124559;1105;104380;-78
2021/03/20 07:26:58;;;;;;;8.40;4.80;;;;;;;1.61;56.09;100829.76;124702;1105;104374;-79
2021/03/20 07:29:46;;;;;;;9.93;4.67;;;;;;;1.69;55.66;100822.17;124527;1106;104197;-79
2021/03/20 07:32:25;;;;;;;9.70;5.03;;;;;;;1.74;55.53;100836.80;124508;1106;104166;-78
2021/03/20 07:35:17;;;;;;;9.70;4.90;;;;;;;1.97;55.77;100828.50;124568;1106;104144;-79
2021/03/20 07:37:45;;;;;;;10.83;5.47;;;;;;;2.25;54.72;100837.42;124553;1105;103069;-79
2021/03/20 07:40:19;;;;;;;9.47;5.03;;;;;;;2.50;54.45;100831.66;124544;1106;104239;-78
2021/03/20 07:42:46;;;;;;;9.50;4.90;;;;;;;2.72;53.95;100832.76;124532;1105;104172;-79
2021/03/20 07:45:16;;;;;;;12.03;6.17;;;;;;;3.07;52.57;100834.77;124515;1109;104172;-77
2021/03/20 07:47:55;;;;;;;11.53;6.07;;;;;;;3.54;53.32;100833.36;124750;1105;104229;-78
2021/03/20 07:50:33;;;;;;;8.07;4.50;;;;;;;4.51;52.98;100832.89;124613;1105;104235;-78
2021/03/20 07:53:13;;;;;;;9.30;4.57;;;;;;;6.03;51.01;100826.69;124508;1105;104239;-78
2021/03/20 07:56:19;;;;;;;8.50;4.67;;;;;;;7.42;50.36;100828.28;124482;1109;104501;-78
2021/03/20 07:59:01;;;;;;;8.67;4.43;;;;;;;9.85;47.67;100811.64;124611;1105;104059;-79
2021/03/20 08:01:33;;;;;;;10.60;4.93;;;;;;;11.76;43.15;100814.02;124499;1106;104158;-79
2021/03/20 08:04:05;;;;;;;8.30;4.33;;;;;;;13.44;43.50;100805.30;124518;1106;102853;-78
2021/03/20 08:06:38;;;;;;;6.83;4.73;;;;;;;14.61;40.92;100807.95;124495;1106;104265;-78
2021/03/20 08:09:21;;;;;;;8.15;5.00;;;;;;;15.15;39.44;100811.88;124571;1105;104128;-78
2021/03/20 08:11:58;;;;;;;6.43;4.27;;;;;;;16.23;38.44;100807.94;124520;1105;104159;-79
2021/03/20 08:14:53;;;;;;;7.30;4.12;;;;;;;16.14;36.23;100810.13;124472;1105;101651;-79
2021/03/20 08:17:21;;;;;;;5.87;3.90;;;;;;;15.43;35.75;100812.39;124516;1105;103020;-79
2021/03/20 08:19:49;;;;;;;7.63;5.00;;;;;;;15.33;35.73;100811.09;124767;1105;104207;-79
2021/03/20 08:22:38;;;;;;;6.33;4.07;;;;;;;14.99;34.59;100816.91;124516;1109;104098;-79
2021/03/20 08:25:32;;;;;;;7.07;4.00;;;;;;;15.45;35.88;100810.58;124522;1106;104200;-79
2021/03/20 08:28:14;;;;;;;7.30;4.43;;;;;;;16.10;34.40;100816.46;124546;1105;104175;-79
2021/03/20 08:31:12;;;;;;;5.87;4.30;;;;;;;16.33;31.46;100813.61;124689;1105;104127;-78
2021/03/20 08:34:06;;;;;;;7.10;4.37;;;;;;;16.20;33.38;100818.62;124546;1105;104281;-79
2021/03/20 08:37:15;;;;;;;7.97;4.87;;;;;;;15.95;32.78;100831.16;124474;1105;104262;-79
2021/03/20 08:40:06;;;;;;;7.50;4.20;;;;;;;15.46;32.77;100833.31;124499;1105;104159;-79
2021/03/20 08:42:52;;;;;;;9.00;4.57;;;;;;;15.07;32.20;100834.04;124530;1105;104529;-80
2021/03/20 08:45:44;;;;;;;6.60;4.30;;;;;;;15.08;30.86;100837.52;124743;1105;102391;-79
2021/03/20 08:48:29;;;;;;;7.87;4.20;;;;;;;15.42;31.24;100829.08;124443;1109;104165;-80
2021/03/20 08:51:15;;;;;;;5.87;3.93;;;;;;;15.41;31.67;100832.63;124735;1105;104040;-79
2021/03/20 08:53:56;;;;;;;8.30;4.25;;;;;;;15.69;31.77;100832.34;124542;1105;104290;-79
2021/03/20 08:56:32;;;;;;;8.23;4.20;;;;;;;15.84;32.49;100828.18;124553;1106;102953;-80
2021/03/20 08:59:08;;;;;;;;;;;;;;;16.20;30.57;100838.81;124800;1105;103051;-79
2021/03/20 09:01:39;;;;;;;7.50;3.90;;;;;;;15.88;30.69;100827.11;124479;1106;104130;-79
2021/03/20 09:04:17;;;;;;;5.90;3.87;;;;;;;15.33;29.92;100837.37;124524;1106;104242;-79
2021/03/20 09:06:56;;;;;;;8.13;5.30;;;;;;;14.75;28.55;100837.15;124563;1105;104203;-79
2021/03/20 09:09:42;;;;;;;7.20;3.83;;;;;;;13.88;30.02;100841.29;124691;1105;104216;-79
2021/03/20 09:12:32;;;;;;;6.63;3.70;;;;;;;13.40;30.24;100854.34;124507;1109;104685;-78
2021/03/20 09:14:59;;;;;;;6.73;3.47;;;;;;;12.72;30.32;100857.41;124459;1105;104316;-80
2021/03/20 09:17:38;;;;;;;6.20;3.40;;;;;;;12.35;32.30;100855.91;124516;1109;104133;-79
2021/03/20 09:20:26;;;;;;;7.67;3.83;;;;;;;12.38;31.44;100857.58;124556;1105;104117;-79
2021/03/20 09:22:55;;;;;;;;;;;;;;;12.44;31.16;100854.80;124795;1105;104140;-80
2021/03/20 09:25:41;;;;;;;6.87;3.63;;;;;;;12.73;31.15;100850.41;124508;1105;103129;-79
2021/03/20 09:28:29;;;;;;;7.43;3.57;;;;;;;13.27;32.21;100866.98;124476;1105;104111;-79
2021/03/20 09:31:21;;;;;;;6.30;3.67;;;;;;;13.79;31.98;100859.95;124708;1105;105239;-79
2021/03/20 09:33:48;;;;;;;5.37;3.40;;;;;;;13.75;30.62;100858.36;124581;1105;104134;-78
2021/03/20 09:36:21;;;;;;;6.10;3.97;;;;;;;13.88;30.80;100869.28;124577;1105;104264;-79
2021/03/20 09:38:51;;;;;;;7.60;3.57;;;;;;;13.78;31.01;100860.87;124523;1105;104216;-79
2021/03/20 09:41:18;;;;;;;6.43;3.73;;;;;;;13.57;29.77;100865.11;124518;1109;104158;-79
2021/03/20 09:44:01;;;;;;;7.33;3.67;;;;;;;13.27;30.62;100868.75;124763;1105;104232;-79
2021/03/20 09:46:47;;;;;;;6.70;3.33;;;;;;;13.13;28.54;100873.59;124741;1105;104018;-80
2021/03/20 09:49:17;;;;;;;6.83;3.40;;;;;;;12.80;29.01;100880.75;124766;1106;104179;-79
2021/03/20 09:51:47;;;;;;;6.63;3.47;;;;;;;12.58;30.18;100881.41;124709;1105;103000;-79
2021/03/20 09:54:32;;;;;;;5.83;3.20;;;;;;;12.55;30.16;100873.63;124631;1105;104141;-80
2021/03/20 09:57:06;;;;;;;6.77;3.00;;;;;;;12.40;29.63;100876.73;124523;1105;104053;-80
2021/03/20 09:59:33;;;;;;;5.13;2.60;;;;;;;11.91;28.94;100872.89;124523;1105;104133;-80
2021/03/20 10:02:02;;;;;;;4.30;2.53;;;;;;;11.65;29.76;100875.30;124793;1105;101716;-80
2021/03/20 10:04:32;;;;;;;4.83;2.73;;;;;;;11.30;29.13;100874.45;124582;1105;104598;-79
2021/03/20 10:07:22;;;;;;;3.93;2.30;;;;;;;10.95;29.09;100874.45;124737;1106;104415;-79
2021/03/20 10:10:01;;;;;;;4.90;2.47;;;;;;;10.64;28.05;100888.22;124829;1105;102031;-78
2021/03/20 10:12:36;;;;;;;5.20;2.80;;;;;;;10.65;29.88;100887.33;124526;1106;104145;-79
2021/03/20 10:15:12;;;;;;;6.20;2.90;;;;;;;10.84;29.56;100891.23;124500;1105;104160;-79
2021/03/20 10:17:59;;;;;;;7.17;2.63;;;;;;;10.95;29.81;100887.50;124514;1105;104162;-78
2021/03/20 10:20:36;;;;;;;3.35;2.17;;;;;;;11.16;29.58;100885.27;124498;1109;104315;-79
2021/03/20 10:23:40;;;;;;;5.25;2.25;;;;;;;11.33;30.07;100889.22;124765;1105;104328;-79
2021/03/20 10:26:39;;;;;;;5.10;2.43;;;;;;;11.91;30.89;100875.50;124463;1109;103957;-79
2021/03/20 10:29:28;;;;;;;3.33;2.22;;;;;;;12.33;28.88;100880.41;124522;1105;104238;-79
2021/03/20 10:32:04;;;;;;;4.57;2.03;;;;;;;12.50;29.12;100878.16;124501;1109;104152;-79
2021/03/20 10:34:52;;;;;;;2.67;1.87;;;;;;;12.65;27.93;100869.84;124549;1105;104301;-78
2021/03/20 10:37:28;;;;;;;4.50;1.90;;;;;;;12.91;27.92;100873.39;124744;1106;104120;-78
2021/03/20 10:40:12;;;;;;;3.87;2.23;;;;;;;13.26;28.29;100870.52;124572;1106;104284;-79
2021/03/20 10:42:44;;;;;;;3.43;2.20;;;;;;;13.41;28.27;100870.92;124623;1105;104130;-79
2021/03/20 10:45:33;;;;;;;3.70;2.27;;;;;;;13.06;28.42;100872.91;124531;1109;104223;-79
2021/03/20 10:48:27;;;;;;;8.27;4.63;;;;;;;13.15;28.61;100870.00;124500;1106;104265;-79
2021/03/20 10:51:01;;;;;;;5.23;3.53;;;;;;;13.69;28.64;100869.08;124555;1109;104137;-79
2021/03/20 10:53:33;;;;;;;5.17;3.10;;;;;;;14.26;28.97;100865.25;124538;1109;104099;-79
2021/03/20 10:56:02;;;;;;;5.47;3.07;;;;;;;14.17;27.79;100866.43;124517;1109;102226;-79
2021/03/20 10:58:41;;;;;;;3.93;2.47;;;;;;;13.42;26.70;100875.25;124494;1106;104310;-79
2021/03/20 11:01:12;;;;;;;4.00;2.67;;;;;;;12.61;27.76;100875.22;124537;1105;104281;-79
2021/03/20 11:03:44;;;;;;;5.23;3.00;;;;;;;11.84;27.48;100866.09;124531;1106;104351;-79
2021/03/20 11:06:23;;;;;;;4.40;2.63;;;;;;;11.00;27.52;100880.45;124547;1109;104172;-78
2021/03/20 11:09:10;;;;;;;5.87;2.70;;;;;;;10.30;28.25;100872.44;124547;1105;104114;-79
2021/03/20 11:11:40;;;;;;;4.45;2.35;;;;;;;9.55;28.17;100875.62;124559;1105;103336;-79
2021/03/20 11:14:13;;;;;;;4.07;2.37;;;;;;;9.08;28.61;100870.32;124465;1109;102495;-78
2021/03/20 11:16:46;;;;;;;3.37;2.13;;;;;;;8.64;29.03;100870.15;124563;1105;104079;-78
2021/03/20 11:19:30;;;;;;;3.77;2.47;;;;;;;8.48;29.74;100875.56;124611;1105;104181;-79
2021/03/20 11:22:01;;;;;;;5.43;3.00;;;;;;;8.64;30.23;100870.15;124588;1109;104274;-78
2021/03/20 11:24:36;;;;;;;4.90;2.90;;;;;;;8.59;30.20;100866.73;124565;1109;104209;-78
2021/03/20 11:27:33;;;;;;;4.27;2.30;;;;;;;8.79;30.07;100870.76;124611;1105;104587;-78
2021/03/20 11:30:12;;;;;;;6.43;3.30;;;;;;;8.71;29.81;100866.56;124470;1105;104137;-78
2021/03/20 11:32:43;;;;;;;10.17;5.73;;;;;;;8.37;29.90;100858.38;124556;1105;104239;-78
2021/03/20 11:35:39;;;;;;;8.33;4.50;;;;;;;7.93;29.42;100862.37;124579;1105;102325;-78
2021/03/20 11:38:12;;;;;;;6.53;3.40;;;;;;;7.47;29.81;100874.95;124500;1106;104627;-78
2021/03/20 11:40:43;;;;;;;6.77;3.27;;;;;;;7.14;29.56;100870.91;124485;1105;104256;-79
2021/03/20 11:43:13;;;;;;;5.60;2.77;;;;;;;6.87;30.36;100872.00;124489;1109;102919;-79
2021/03/20 11:45:42;;;;;;;5.13;2.90;;;;;;;6.64;30.22;100873.02;124747;1105;104011;-79
2021/03/20 11:48:15;;;;;;;3.83;2.70;;;;;;;6.46;31.18;100861.87;124584;1106;104108;-80
2021/03/20 11:50:50;;;;;;;5.47;3.10;;;;;;;6.27;30.64;100871.46;124539;1109;104966;-80
2021/03/20 11:53:31;;;;;;;4.90;2.67;;;;;;;6.14;31.23;100869.81;124496;1109;104319;-80
2021/03/20 11:55:59;;;;;;;5.17;2.40;;;;;;;5.91;31.10;100870.73;124555;1106;104272;-80
2021/03/20 11:58:37;;;;;;;4.10;2.23;;;;;;;5.61;30.98;100868.22;124559;1106;104236;-80
2021/03/20 12:01:44;;;;;;;3.90;2.50;;;;;;;5.36;31.50;100873.41;124542;1106;104296;-79